createdAt,value
2023-03-26T00:01:30.171Z,118.99
2023-03-26T00:03:57.993Z,118.99
2023-03-26T00:06:28.785Z,118.99
2023-03-26T00:08:57.715Z,118.99
2023-03-26T00:11:27.356Z,118.99
2023-03-26T00:13:57.023Z,118.99
2023-03-26T00:16:26.430Z,118.99
2023-03-26T00:18:53.888Z,118.99
2023-03-26T00:21:28.213Z,118.99
2023-03-26T00:23:58.601Z,118.99
2023-03-26T00:26:26.684Z,118.99
2023-03-26T00:28:54.596Z,118.99
2023-03-26T00:31:21.588Z,118.99
2023-03-26T00:33:51.335Z,118.99
2023-03-26T00:36:20.015Z,118.99
2023-03-26T00:38:47.958Z,118.99
2023-03-26T00:41:25.055Z,118.99
2023-03-26T00:43:56.192Z,118.99
2023-03-26T00:46:25.247Z,118.99
2023-03-26T00:48:52.192Z,118.99
2023-03-26T00:51:20.985Z,118.99
2023-03-26T00:53:49.346Z,118.99
2023-03-26T00:56:16.830Z,118.99
2023-03-26T00:58:44.443Z,118.99
2023-03-26T01:01:14.027Z,118.93
2023-03-26T01:03:53.191Z,118.99
2023-03-26T01:06:34.024Z,118.96
2023-03-26T01:09:12.687Z,118.99
2023-03-26T01:11:39.898Z,118.99
2023-03-26T01:14:10.924Z,118.99
2023-03-26T01:16:45.120Z,118.99
2023-03-26T01:19:23.876Z,118.99
2023-03-26T01:21:50.628Z,118.99
2023-03-26T01:24:17.588Z,118.99
2023-03-26T01:26:50.277Z,118.99
2023-03-26T01:29:29.710Z,118.99
2023-03-26T01:32:20.752Z,118.99
2023-03-26T01:35:07.029Z,118.99
2023-03-26T01:37:58.779Z,118.99
2023-03-26T01:40:43.932Z,118.99
2023-03-26T01:43:29.038Z,118.99
2023-03-26T01:45:59.409Z,118.99
2023-03-26T01:48:36.882Z,118.99
2023-03-26T01:51:05.032Z,118.99
2023-03-26T01:53:34.967Z,118.99
2023-03-26T01:56:12.938Z,118.99
2023-03-26T01:59:01.402Z,118.99
2023-03-26T02:01:44.762Z,118.98
2023-03-26T02:04:53.429Z,118.49
2023-03-26T02:07:39.322Z,118.99
2023-03-26T02:10:16.209Z,118.92
2023-03-26T02:12:44.462Z,117.87
2023-03-26T02:15:12.561Z,117.89
2023-03-26T02:17:40.391Z,118.98
2023-03-26T02:20:15.911Z,118.99
2023-03-26T02:22:46.012Z,118.99
2023-03-26T02:25:18.882Z,118.99
2023-03-26T02:27:46.864Z,118.99
2023-03-26T02:30:20.109Z,118.99
2023-03-26T02:32:47.709Z,118.99
2023-03-26T02:35:14.734Z,118.99
2023-03-26T02:37:42.200Z,118.99
2023-03-26T02:40:11.660Z,118.99
2023-03-26T02:42:39.034Z,118.99
2023-03-26T02:45:06.763Z,118.99
2023-03-26T02:47:33.856Z,118.99
2023-03-26T02:50:01.677Z,118.99
2023-03-26T02:52:28.418Z,118.99
2023-03-26T02:54:55.402Z,118.99
2023-03-26T02:57:23.366Z,118.99
2023-03-26T02:59:50.398Z,118.99
2023-03-26T03:02:18.290Z,118.99
2023-03-26T03:04:45.285Z,118.99
2023-03-26T03:07:15.124Z,118.99
2023-03-26T03:09:42.072Z,118.99
2023-03-26T03:12:08.824Z,118.99
2023-03-26T03:14:35.750Z,118.99
2023-03-26T03:17:02.587Z,118.99
2023-03-26T03:19:29.394Z,118.99
2023-03-26T03:21:56.257Z,118.99
2023-03-26T03:24:23.519Z,118.99
2023-03-26T03:26:54.956Z,118.99
2023-03-26T03:29:21.745Z,118.99
2023-03-26T03:31:48.505Z,118.99
2023-03-26T03:34:15.380Z,118.99
2023-03-26T03:36:42.044Z,118.99
2023-03-26T03:39:08.925Z,118.99
2023-03-26T03:41:35.686Z,118.99
2023-03-26T03:44:02.607Z,118.99
2023-03-26T03:46:29.412Z,118.99
2023-03-26T03:48:56.218Z,118.99
2023-03-26T03:51:23.368Z,118.99
2023-03-26T03:53:50.516Z,118.99
2023-03-26T03:56:19.375Z,118.99
2023-03-26T03:58:47.412Z,118.99
2023-03-26T04:01:16.833Z,118.99
2023-03-26T04:03:46.539Z,118.99
2023-03-26T04:06:13.907Z,118.99
2023-03-26T04:08:40.861Z,118.24
2023-03-26T04:11:07.545Z,116.39
2023-03-26T04:13:34.432Z,116.51
2023-03-26T04:16:01.278Z,116.96
2023-03-26T04:18:30.243Z,117.26
2023-03-26T04:20:57.162Z,118.02
2023-03-26T04:23:24.391Z,117.67
2023-03-26T04:25:55.025Z,117.67
2023-03-26T04:28:35.659Z,118.66
2023-03-26T04:31:06.247Z,118.99
2023-03-26T04:33:34.787Z,118.29
2023-03-26T04:36:03.203Z,118.37
2023-03-26T04:38:33.511Z,118.99
2023-03-26T04:41:03.993Z,118.99
2023-03-26T04:43:31.625Z,118.99
2023-03-26T04:45:58.424Z,118.99
2023-03-26T04:48:25.773Z,117.68
2023-03-26T04:50:52.862Z,117.81
2023-03-26T04:53:21.367Z,117.40
2023-03-26T04:55:57.359Z,115.73
2023-03-26T04:58:30.202Z,114.75
2023-03-26T05:00:57.505Z,115.58
2023-03-26T05:03:25.660Z,116.63
2023-03-26T05:05:52.959Z,117.10
2023-03-26T05:08:19.784Z,116.22
2023-03-26T05:10:46.601Z,116.29
2023-03-26T05:13:13.351Z,115.54
2023-03-26T05:15:40.413Z,114.22
2023-03-26T05:18:08.858Z,113.60
2023-03-26T05:20:36.000Z,114.16
2023-03-26T05:23:02.889Z,113.90
2023-03-26T05:25:30.207Z,115.00
2023-03-26T05:27:57.022Z,115.33
2023-03-26T05:30:23.801Z,115.22
2023-03-26T05:32:51.921Z,115.32
2023-03-26T05:35:19.517Z,116.00
2023-03-26T05:37:47.998Z,114.95
2023-03-26T05:40:17.018Z,115.41
2023-03-26T05:42:44.812Z,114.72
2023-03-26T05:45:12.818Z,115.57
2023-03-26T05:47:39.750Z,114.86
2023-03-26T05:50:07.530Z,114.67
2023-03-26T05:52:34.665Z,114.89
2023-03-26T05:55:01.867Z,114.64
2023-03-26T05:57:32.359Z,114.22
2023-03-26T05:59:59.156Z,115.11
2023-03-26T06:02:26.078Z,114.52
2023-03-26T06:04:52.937Z,113.48
2023-03-26T06:07:20.083Z,112.32
2023-03-26T06:09:47.135Z,112.09
2023-03-26T06:12:14.820Z,113.31
2023-03-26T06:14:44.996Z,113.60
2023-03-26T06:17:12.062Z,113.51
2023-03-26T06:19:38.873Z,113.52
2023-03-26T06:22:05.953Z,115.81
2023-03-26T06:24:34.420Z,114.81
2023-03-26T06:27:01.132Z,115.39
2023-03-26T06:29:27.967Z,118.45
2023-03-26T06:31:54.985Z,116.31
2023-03-26T06:34:22.125Z,116.91
2023-03-26T06:36:49.141Z,117.83
2023-03-26T06:39:16.394Z,118.97
2023-03-26T06:41:43.107Z,118.60
2023-03-26T06:44:11.176Z,118.47
2023-03-26T06:46:39.048Z,117.60
2023-03-26T06:49:06.057Z,117.92
2023-03-26T06:51:32.873Z,117.59
2023-03-26T06:53:59.694Z,116.61
2023-03-26T06:56:26.604Z,115.06
2023-03-26T06:58:53.237Z,114.09
2023-03-26T07:01:20.096Z,111.63
2023-03-26T07:03:47.014Z,112.77
2023-03-26T07:06:13.832Z,113.09
2023-03-26T07:08:40.891Z,113.14
2023-03-26T07:11:07.788Z,112.10
2023-03-26T07:13:34.721Z,110.34
2023-03-26T07:16:01.561Z,112.47
2023-03-26T07:18:28.325Z,111.32
2023-03-26T07:20:55.495Z,111.00
2023-03-26T07:23:22.738Z,109.04
2023-03-26T07:25:49.941Z,111.20
2023-03-26T07:28:34.744Z,107.94
2023-03-26T07:31:18.399Z,105.24
2023-03-26T07:34:23.775Z,105.08
2023-03-26T07:37:33.980Z,104.57
2023-03-26T07:40:50.645Z,103.78
2023-03-26T07:43:28.248Z,99.99
2023-03-26T07:45:56.349Z,98.71
2023-03-26T07:48:31.506Z,98.39
2023-03-26T07:51:00.050Z,99.64
2023-03-26T07:53:26.903Z,98.84
2023-03-26T07:55:59.668Z,98.74
2023-03-26T07:58:48.173Z,96.59
2023-03-26T08:01:23.890Z,96.00
2023-03-26T08:04:23.747Z,92.81
2023-03-26T08:07:03.385Z,94.15
2023-03-26T08:10:08.286Z,91.05
2023-03-26T08:12:41.185Z,90.59
2023-03-26T08:15:33.968Z,89.46
2023-03-26T08:18:38.834Z,89.45
2023-03-26T08:21:31.765Z,89.91
2023-03-26T08:24:01.393Z,87.94
2023-03-26T08:26:51.739Z,89.77
2023-03-26T08:29:22.806Z,85.51
2023-03-26T08:31:50.462Z,89.73
2023-03-26T08:34:17.291Z,88.22
2023-03-26T08:36:43.992Z,87.96
2023-03-26T08:39:10.796Z,89.97
2023-03-26T08:42:25.774Z,88.03
2023-03-26T08:45:29.552Z,87.71
2023-03-26T08:48:14.818Z,84.98
2023-03-26T08:50:58.244Z,79.54
2023-03-26T08:53:39.016Z,79.91
2023-03-26T08:56:18.169Z,77.82
2023-03-26T08:59:09.137Z,74.93
2023-03-26T09:01:54.149Z,76.82
2023-03-26T09:04:29.790Z,76.36
2023-03-26T09:07:27.727Z,76.08
2023-03-26T09:10:32.032Z,80.85
2023-03-26T09:13:32.888Z,78.94
2023-03-26T09:16:15.253Z,79.23
2023-03-26T09:19:05.028Z,75.56
2023-03-26T09:21:57.225Z,74.51
2023-03-26T09:24:32.986Z,73.98
2023-03-26T09:27:16.319Z,75.76
2023-03-26T09:30:01.420Z,77.92
2023-03-26T09:32:57.276Z,72.50
2023-03-26T09:35:52.696Z,68.55
2023-03-26T09:38:55.092Z,66.76
2023-03-26T09:41:41.457Z,65.70
2023-03-26T09:44:37.868Z,63.00
2023-03-26T09:47:29.804Z,64.66
2023-03-26T09:50:30.460Z,65.00
2023-03-26T09:53:18.371Z,69.12
2023-03-26T09:56:08.490Z,68.59
2023-03-26T09:59:09.126Z,69.72
2023-03-26T10:01:44.974Z,64.64
2023-03-26T10:04:36.009Z,63.61
2023-03-26T10:07:30.198Z,69.24
2023-03-26T10:10:19.613Z,68.96
2023-03-26T10:12:55.969Z,67.72
2023-03-26T10:15:36.577Z,64.89
2023-03-26T10:18:27.804Z,68.49
2023-03-26T10:21:12.050Z,67.73
2023-03-26T10:24:16.616Z,62.26
2023-03-26T10:27:13.716Z,63.29
2023-03-26T10:29:59.202Z,62.83
2023-03-26T10:32:34.085Z,61.93
2023-03-26T10:35:37.084Z,60.58
2023-03-26T10:38:29.486Z,57.61
2023-03-26T10:41:38.205Z,57.38
2023-03-26T10:44:13.923Z,61.15
2023-03-26T10:47:10.901Z,54.39
2023-03-26T10:50:23.098Z,55.66
2023-03-26T10:52:56.368Z,55.59
2023-03-26T10:55:33.649Z,55.42
2023-03-26T10:58:24.157Z,51.79
2023-03-26T11:01:13.642Z,52.59
2023-03-26T11:03:52.186Z,45.18
2023-03-26T11:06:26.604Z,47.30
2023-03-26T11:09:22.706Z,51.28
2023-03-26T11:11:57.467Z,50.80
2023-03-26T11:14:34.855Z,48.66
2023-03-26T11:17:40.883Z,51.25
2023-03-26T11:20:24.248Z,50.53
2023-03-26T11:23:03.060Z,47.44
2023-03-26T11:25:38.707Z,50.24
2023-03-26T11:28:17.380Z,48.05
2023-03-26T11:31:09.940Z,47.87
2023-03-26T11:33:47.766Z,44.49
2023-03-26T11:36:29.105Z,43.14
2023-03-26T11:38:59.659Z,45.62
2023-03-26T11:41:28.627Z,41.41
2023-03-26T11:44:11.345Z,42.74
2023-03-26T11:46:42.462Z,42.81
2023-03-26T11:49:13.236Z,40.42
2023-03-26T11:51:42.958Z,40.72
2023-03-26T11:54:12.789Z,42.16
2023-03-26T11:57:05.595Z,45.81
2023-03-26T11:59:56.538Z,43.88
2023-03-26T12:02:34.060Z,42.77
2023-03-26T12:05:12.017Z,42.23
2023-03-26T12:07:45.842Z,44.04
2023-03-26T12:10:37.630Z,43.18
2023-03-26T12:13:50.706Z,41.06
2023-03-26T12:16:20.067Z,42.10
2023-03-26T12:18:59.381Z,41.33
2023-03-26T12:21:27.006Z,43.51
2023-03-26T12:24:01.839Z,43.59
2023-03-26T12:26:44.958Z,45.79
2023-03-26T12:29:17.998Z,44.50
2023-03-26T12:31:56.483Z,44.00
2023-03-26T12:34:31.672Z,44.49
2023-03-26T12:37:01.788Z,43.85
2023-03-26T12:40:09.321Z,45.51
2023-03-26T12:44:46.127Z,46.21
2023-03-26T12:45:14.461Z,47.87
2023-03-26T12:47:57.980Z,45.24
2023-03-26T12:50:38.535Z,47.36
2023-03-26T12:53:08.313Z,49.31
2023-03-26T12:55:36.742Z,48.39
2023-03-26T12:58:22.253Z,47.86
2023-03-26T13:00:55.399Z,46.84
2023-03-26T13:03:38.286Z,44.78
2023-03-26T13:06:14.073Z,44.64
2023-03-26T13:09:01.131Z,43.26
2023-03-26T13:11:55.029Z,41.68
2023-03-26T13:14:44.989Z,40.64
2023-03-26T13:17:30.960Z,39.17
2023-03-26T13:20:24.935Z,38.78
2023-03-26T13:23:16.337Z,37.54
2023-03-26T13:26:01.344Z,37.11
2023-03-26T13:28:43.066Z,37.75
2023-03-26T13:31:29.131Z,40.59
2023-03-26T13:34:36.330Z,39.41
2023-03-26T13:37:18.363Z,39.65
2023-03-26T13:40:25.777Z,37.91
2023-03-26T13:43:07.724Z,39.28
2023-03-26T13:45:54.037Z,39.59
2023-03-26T13:48:28.620Z,40.17
2023-03-26T13:51:22.283Z,40.95
2023-03-26T13:54:13.643Z,42.43
2023-03-26T13:56:46.408Z,42.31
2023-03-26T13:59:21.519Z,43.77
2023-03-26T14:01:55.349Z,43.78
2023-03-26T14:04:33.524Z,45.25
2023-03-26T14:07:23.409Z,40.81
2023-03-26T14:09:59.237Z,41.15
2023-03-26T14:12:44.654Z,41.04
2023-03-26T14:15:16.359Z,41.53
2023-03-26T14:17:55.610Z,39.14
2023-03-26T14:20:44.649Z,38.87
2023-03-26T14:23:39.528Z,40.23
2023-03-26T14:26:31.474Z,38.13
2023-03-26T14:29:34.359Z,42.22
2023-03-26T14:32:32.080Z,41.06
2023-03-26T14:35:09.562Z,43.61
2023-03-26T14:38:14.402Z,42.93
2023-03-26T14:40:58.162Z,44.96
2023-03-26T14:44:11.319Z,47.17
2023-03-26T14:47:20.057Z,46.49
2023-03-26T14:50:21.601Z,46.73
2023-03-26T14:53:01.318Z,46.89
2023-03-26T14:55:48.593Z,45.34
2023-03-26T14:58:44.114Z,45.64
2023-03-26T15:01:46.945Z,49.62
2023-03-26T15:04:19.777Z,47.25
2023-03-26T15:06:52.792Z,48.35
2023-03-26T15:09:25.886Z,47.63
2023-03-26T15:12:34.309Z,49.05
2023-03-26T15:15:11.081Z,48.71
2023-03-26T15:18:09.131Z,47.97
2023-03-26T15:21:06.924Z,48.96
2023-03-26T15:23:42.891Z,51.13
2023-03-26T15:26:37.133Z,50.72
2023-03-26T15:29:16.062Z,51.74
2023-03-26T15:31:57.719Z,50.56
2023-03-26T15:35:00.139Z,53.06
2023-03-26T15:37:42.083Z,53.20
2023-03-26T15:40:30.512Z,51.00
2023-03-26T15:43:32.357Z,52.43
2023-03-26T15:46:29.149Z,52.07
2023-03-26T15:49:16.675Z,53.17
2023-03-26T15:51:59.166Z,52.20
2023-03-26T15:54:30.523Z,53.75
2023-03-26T15:57:26.087Z,51.59
2023-03-26T15:59:59.310Z,49.97
2023-03-26T16:03:00.595Z,48.95
2023-03-26T16:05:46.145Z,47.95
2023-03-26T16:08:53.287Z,43.67
2023-03-26T16:11:59.359Z,42.79
2023-03-26T16:14:35.152Z,43.71
2023-03-26T16:17:08.156Z,41.95
2023-03-26T16:19:49.740Z,42.56
2023-03-26T16:22:45.609Z,44.36
2023-03-26T16:25:31.490Z,46.77
2023-03-26T16:28:10.467Z,44.99
2023-03-26T16:30:38.065Z,46.70
2023-03-26T16:33:12.533Z,46.93
2023-03-26T16:36:06.506Z,49.98
2023-03-26T16:38:59.267Z,52.33
2023-03-26T16:41:31.830Z,55.08
2023-03-26T16:44:16.994Z,60.07
2023-03-26T16:46:59.167Z,63.18
2023-03-26T16:50:08.901Z,67.19
2023-03-26T16:52:46.994Z,72.52
2023-03-26T16:55:35.322Z,74.17
2023-03-26T16:58:09.524Z,77.58
2023-03-26T17:01:16.636Z,77.53
2023-03-26T17:03:54.594Z,76.24
2023-03-26T17:06:32.083Z,78.32
2023-03-26T17:09:07.817Z,78.90
2023-03-26T17:12:02.671Z,81.71
2023-03-26T17:14:29.411Z,81.82
2023-03-26T17:17:02.583Z,82.02
2023-03-26T17:19:32.750Z,82.15
2023-03-26T17:22:16.630Z,82.71
2023-03-26T17:24:57.140Z,82.17
2023-03-26T17:27:50.096Z,84.03
2023-03-26T17:30:45.787Z,84.35
2023-03-26T17:33:20.037Z,83.89
2023-03-26T17:35:48.807Z,83.74
2023-03-26T17:38:15.593Z,84.52
2023-03-26T17:40:58.674Z,86.74
2023-03-26T17:43:46.563Z,84.43
2023-03-26T17:46:13.688Z,85.78
2023-03-26T17:48:47.097Z,87.93
2023-03-26T17:51:32.041Z,85.67
2023-03-26T17:54:00.176Z,86.20
2023-03-26T17:56:29.779Z,89.32
2023-03-26T17:59:11.521Z,86.45
2023-03-26T18:01:44.300Z,86.04
2023-03-26T18:04:21.209Z,86.09
2023-03-26T18:07:04.083Z,88.74
2023-03-26T18:10:09.411Z,88.93
2023-03-26T18:12:48.391Z,89.01
2023-03-26T18:15:20.201Z,89.25
2023-03-26T18:17:48.028Z,89.28
2023-03-26T18:20:24.373Z,89.64
2023-03-26T18:22:52.566Z,90.87
2023-03-26T18:25:34.081Z,91.43
2023-03-26T18:28:02.361Z,90.21
2023-03-26T18:30:29.845Z,90.55
2023-03-26T18:33:04.018Z,91.72
2023-03-26T18:35:46.186Z,91.83
2023-03-26T18:38:19.305Z,91.89
2023-03-26T18:41:05.909Z,92.04
2023-03-26T18:43:35.622Z,91.66
2023-03-26T18:46:13.824Z,92.22
2023-03-26T18:48:41.528Z,93.05
2023-03-26T18:51:10.219Z,93.08
2023-03-26T18:54:04.712Z,93.36
2023-03-26T18:56:40.576Z,92.20
2023-03-26T18:59:30.783Z,91.57
2023-03-26T19:02:05.469Z,90.02
2023-03-26T19:04:34.852Z,90.35
2023-03-26T19:07:04.665Z,89.28
2023-03-26T19:09:32.707Z,90.72
2023-03-26T19:12:14.388Z,92.76
2023-03-26T19:15:11.121Z,92.27
2023-03-26T19:17:56.674Z,93.17
2023-03-26T19:20:28.916Z,91.61
2023-03-26T19:22:56.990Z,92.03
2023-03-26T19:25:28.721Z,93.10
2023-03-26T19:27:56.054Z,93.43
2023-03-26T19:30:31.741Z,92.33
2023-03-26T19:33:13.894Z,93.53
2023-03-26T19:35:42.840Z,93.51
2023-03-26T19:38:24.841Z,95.02
2023-03-26T19:40:54.833Z,94.47
2023-03-26T19:43:23.082Z,97.00
2023-03-26T19:45:59.893Z,100.58
2023-03-26T19:48:45.774Z,97.61
2023-03-26T19:51:21.093Z,98.28
2023-03-26T19:53:54.289Z,98.69
2023-03-26T19:56:22.156Z,98.45
2023-03-26T19:58:50.157Z,97.84
2023-03-26T20:01:26.736Z,98.17
2023-03-26T20:04:01.021Z,98.56
2023-03-26T20:06:42.278Z,98.32
2023-03-26T20:09:12.877Z,98.61
2023-03-26T20:11:40.753Z,96.86
2023-03-26T20:14:24.521Z,96.69
2023-03-26T20:16:52.115Z,95.55
2023-03-26T20:19:19.209Z,94.17
2023-03-26T20:21:46.136Z,92.98
2023-03-26T20:24:17.750Z,92.87
2023-03-26T20:26:45.810Z,92.10
2023-03-26T20:29:14.018Z,92.59
2023-03-26T20:31:41.711Z,92.98
2023-03-26T20:34:22.105Z,93.56
2023-03-26T20:36:55.127Z,94.40
2023-03-26T20:39:23.467Z,93.95
2023-03-26T20:41:53.713Z,94.91
2023-03-26T20:44:21.929Z,96.59
2023-03-26T20:46:49.936Z,97.49
2023-03-26T20:49:18.464Z,97.48
2023-03-26T20:51:46.610Z,98.33
2023-03-26T20:54:17.638Z,97.82
2023-03-26T20:56:45.686Z,98.96
2023-03-26T20:59:18.071Z,98.17
2023-03-26T21:01:47.509Z,97.86
2023-03-26T21:04:16.090Z,98.29
2023-03-26T21:06:43.950Z,97.70
2023-03-26T21:09:17.627Z,97.48
2023-03-26T21:12:08.107Z,97.96
2023-03-26T21:14:44.218Z,98.27
2023-03-26T21:17:22.173Z,98.02
2023-03-26T21:19:49.696Z,97.37
2023-03-26T21:22:43.325Z,96.40
2023-03-26T21:25:32.302Z,96.00
2023-03-26T21:28:28.943Z,96.19
2023-03-26T21:31:04.310Z,96.24
2023-03-26T21:33:31.108Z,95.39
2023-03-26T21:36:00.013Z,94.87
2023-03-26T21:38:27.561Z,95.02
2023-03-26T21:40:58.851Z,94.65
2023-03-26T21:43:26.097Z,94.56
2023-03-26T21:45:57.457Z,95.78
2023-03-26T21:48:24.669Z,94.23
2023-03-26T21:50:51.931Z,93.82
2023-03-26T21:53:19.061Z,94.30
2023-03-26T21:56:21.448Z,93.63
2023-03-26T21:58:59.188Z,93.13
2023-03-26T22:01:48.897Z,94.07
2023-03-26T22:04:36.154Z,92.78
2023-03-26T22:07:17.756Z,93.07
2023-03-26T22:09:44.955Z,93.78
2023-03-26T22:12:12.117Z,94.04
2023-03-26T22:14:39.342Z,92.45
2023-03-26T22:17:06.795Z,92.67
2023-03-26T22:19:34.594Z,94.11
2023-03-26T22:22:02.154Z,94.20
2023-03-26T22:24:28.980Z,94.38
2023-03-26T22:26:56.055Z,94.31
2023-03-26T22:29:22.895Z,94.11
2023-03-26T22:31:49.606Z,92.79
2023-03-26T22:34:16.665Z,92.46
2023-03-26T22:36:43.466Z,91.49
2023-03-26T22:39:10.185Z,92.55
2023-03-26T22:41:37.143Z,92.18
2023-03-26T22:44:16.841Z,93.46
2023-03-26T22:46:49.236Z,93.76
2023-03-26T22:49:16.745Z,93.48
2023-03-26T22:51:43.765Z,93.98
2023-03-26T22:54:10.637Z,93.59
2023-03-26T22:56:37.681Z,92.80
2023-03-26T22:59:04.675Z,94.06
2023-03-26T23:01:31.562Z,93.88
2023-03-26T23:03:58.639Z,93.77
2023-03-26T23:06:25.615Z,92.69
2023-03-26T23:08:52.461Z,94.39
2023-03-26T23:11:22.009Z,93.89
2023-03-26T23:13:49.320Z,93.82
2023-03-26T23:16:17.371Z,93.99
2023-03-26T23:18:44.605Z,93.43
2023-03-26T23:21:18.461Z,93.01
2023-03-26T23:23:46.206Z,93.07
2023-03-26T23:26:14.426Z,92.92
2023-03-26T23:28:42.340Z,93.71
2023-03-26T23:31:12.090Z,93.19
2023-03-26T23:33:46.606Z,93.75
2023-03-26T23:36:18.702Z,92.87
2023-03-26T23:38:47.610Z,93.61
2023-03-26T23:41:16.127Z,93.70
2023-03-26T23:43:53.385Z,92.98
2023-03-26T23:46:24.016Z,93.78
2023-03-26T23:48:52.525Z,93.49
2023-03-26T23:51:20.437Z,92.82
2023-03-26T23:53:49.185Z,93.86
2023-03-26T23:56:16.622Z,93.42
2023-03-26T23:58:43.449Z,92.85
